sensor_id;sensor_type;location;lat;lon;timestamp;pressure;altitude;pressure_sealevel;temperature;humidity
71504;BME280;59323;50.874;7.028;2023-05-07T00:01:03;101206.53;;;14.20;100.00
71504;BME280;59323;50.874;7.028;2023-05-07T00:03:30;101206.91;;;14.18;100.00
71504;BME280;59323;50.874;7.028;2023-05-07T00:05:56;101215.88;;;14.15;100.00
71504;BME280;59323;50.874;7.028;2023-05-07T00:08:22;101214.69;;;14.13;100.00
71504;BME280;59323;50.874;7.028;2023-05-07T00:10:47;101213.50;;;14.14;100.00
71504;BME280;59323;50.874;7.028;2023-05-07T00:13:13;101210.38;;;14.12;100.00
71504;BME280;59323;50.874;7.028;2023-05-07T00:15:38;101206.81;;;14.08;100.00
71504;BME280;59323;50.874;7.028;2023-05-07T00:18:04;101211.13;;;14.09;100.00
71504;BME280;59323;50.874;7.028;2023-05-07T00:20:29;101214.72;;;14.16;100.00
71504;BME280;59323;50.874;7.028;2023-05-07T00:22:55;101207.66;;;14.15;100.00
71504;BME280;59323;50.874;7.028;2023-05-07T00:25:20;101206.84;;;14.11;100.00
71504;BME280;59323;50.874;7.028;2023-05-07T00:27:46;101211.53;;;14.11;100.00
71504;BME280;59323;50.874;7.028;2023-05-07T00:30:12;101217.84;;;14.18;100.00
71504;BME280;59323;50.874;7.028;2023-05-07T00:32:38;101215.50;;;14.17;100.00
71504;BME280;59323;50.874;7.028;2023-05-07T00:35:04;101222.91;;;14.16;100.00
71504;BME280;59323;50.874;7.028;2023-05-07T00:37:30;101228.00;;;14.18;100.00
71504;BME280;59323;50.874;7.028;2023-05-07T00:39:55;101220.19;;;14.20;100.00
71504;BME280;59323;50.874;7.028;2023-05-07T00:42:20;101215.09;;;14.15;100.00
71504;BME280;59323;50.874;7.028;2023-05-07T00:44:46;101217.81;;;14.15;100.00
71504;BME280;59323;50.874;7.028;2023-05-07T00:47:11;101209.19;;;14.09;100.00
71504;BME280;59323;50.874;7.028;2023-05-07T00:49:41;101211.53;;;14.11;100.00
71504;BME280;59323;50.874;7.028;2023-05-07T00:52:07;101216.22;;;14.10;100.00
71504;BME280;59323;50.874;7.028;2023-05-07T00:54:34;101204.47;;;14.06;100.00
71504;BME280;59323;50.874;7.028;2023-05-07T00:57:01;101208.75;;;14.07;100.00
71504;BME280;59323;50.874;7.028;2023-05-07T00:59:27;101211.88;;;14.06;100.00
71504;BME280;59323;50.874;7.028;2023-05-07T01:01:53;101210.72;;;14.07;100.00
71504;BME280;59323;50.874;7.028;2023-05-07T01:04:18;101204.06;;;14.04;100.00
71504;BME280;59323;50.874;7.028;2023-05-07T01:06:44;101205.25;;;14.07;100.00
71504;BME280;59323;50.874;7.028;2023-05-07T01:09:11;101198.59;;;14.04;100.00
71504;BME280;59323;50.874;7.028;2023-05-07T01:11:37;101198.59;;;14.04;100.00
71504;BME280;59323;50.874;7.028;2023-05-07T01:14:03;101202.09;;;14.05;100.00
71504;BME280;59323;50.874;7.028;2023-05-07T01:16:29;101188.78;;;14.00;100.00
71504;BME280;59323;50.874;7.028;2023-05-07T01:18:55;101190.34;;;14.01;100.00
71504;BME280;59323;50.874;7.028;2023-05-07T01:21:25;101192.69;;;13.99;100.00
71504;BME280;59323;50.874;7.028;2023-05-07T01:23:52;101192.31;;;14.00;100.00
71504;BME280;59323;50.874;7.028;2023-05-07T01:26:20;101181.72;;;13.95;100.00
71504;BME280;59323;50.874;7.028;2023-05-07T01:28:47;101177.38;;;13.90;100.00
71504;BME280;59323;50.874;7.028;2023-05-07T01:31:13;101186.06;;;14.00;100.00
71504;BME280;59323;50.874;7.028;2023-05-07T01:33:40;101180.56;;;13.96;100.00
71504;BME280;59323;50.874;7.028;2023-05-07T01:36:07;101180.53;;;13.92;100.00
71504;BME280;59323;50.874;7.028;2023-05-07T01:38:35;101173.88;;;13.90;100.00
71504;BME280;59323;50.874;7.028;2023-05-07T01:41:01;101175.44;;;13.91;100.00
71504;BME280;59323;50.874;7.028;2023-05-07T01:43:28;101174.63;;;13.87;100.00
71504;BME280;59323;50.874;7.028;2023-05-07T01:45:55;101168.75;;;13.85;100.00
71504;BME280;59323;50.874;7.028;2023-05-07T01:48:21;101164.44;;;13.84;100.00
71504;BME280;59323;50.874;7.028;2023-05-07T01:50:47;101180.47;;;13.85;100.00
71504;BME280;59323;50.874;7.028;2023-05-07T01:53:13;101182.03;;;13.86;100.00
71504;BME280;59323;50.874;7.028;2023-05-07T01:55:38;101178.09;;;13.84;100.00
71504;BME280;59323;50.874;7.028;2023-05-07T01:58:05;101180.03;;;13.83;100.00
71504;BME280;59323;50.874;7.028;2023-05-07T02:00:31;101171.84;;;13.83;100.00
71504;BME280;59323;50.874;7.028;2023-05-07T02:02:59;101185.53;;;13.87;100.00
71504;BME280;59323;50.874;7.028;2023-05-07T02:05:24;101182.81;;;13.87;100.00
71504;BME280;59323;50.874;7.028;2023-05-07T02:07:50;101170.28;;;13.82;100.00
71504;BME280;59323;50.874;7.028;2023-05-07T02:10:15;101171.06;;;13.83;100.00
71504;BME280;59323;50.874;7.028;2023-05-07T02:12:40;101180.88;;;13.87;100.00
71504;BME280;59323;50.874;7.028;2023-05-07T02:15:06;101175.41;;;13.87;100.00
71504;BME280;59323;50.874;7.028;2023-05-07T02:17:32;101186.34;;;13.87;100.00
71504;BME280;59323;50.874;7.028;2023-05-07T02:19:58;101173.41;;;13.84;100.00
71504;BME280;59323;50.874;7.028;2023-05-07T02:22:24;101182.44;;;13.88;100.00
71504;BME280;59323;50.874;7.028;2023-05-07T02:24:49;101173.00;;;13.82;100.00
71504;BME280;59323;50.874;7.028;2023-05-07T02:27:15;101183.59;;;13.87;100.00
71504;BME280;59323;50.874;7.028;2023-05-07T02:29:40;101186.28;;;13.84;100.00
71504;BME280;59323;50.874;7.028;2023-05-07T02:32:06;101183.19;;;13.85;100.00
71504;BME280;59323;50.874;7.028;2023-05-07T02:34:31;101173.75;;;13.79;100.00
71504;BME280;59323;50.874;7.028;2023-05-07T02:36:56;101190.22;;;13.86;100.00
71504;BME280;59323;50.874;7.028;2023-05-07T02:39:22;101183.53;;;13.80;100.00
71504;BME280;59323;50.874;7.028;2023-05-07T02:41:47;101183.50;;;13.77;100.00
71504;BME280;59323;50.874;7.028;2023-05-07T02:44:13;101176.00;;;13.70;100.00
71504;BME280;59323;50.874;7.028;2023-05-07T02:46:38;101199.09;;;13.76;100.00
71504;BME280;59323;50.874;7.028;2023-05-07T02:49:04;101176.75;;;13.67;100.00
71504;BME280;59323;50.874;7.028;2023-05-07T02:51:30;101190.81;;;13.69;100.00
71504;BME280;59323;50.874;7.028;2023-05-07T02:53:55;101190.03;;;13.69;100.00
71504;BME280;59323;50.874;7.028;2023-05-07T02:56:21;101181.06;;;13.68;100.00
71504;BME280;59323;50.874;7.028;2023-05-07T02:58:46;101192.00;;;13.68;100.00
71504;BME280;59323;50.874;7.028;2023-05-07T03:01:12;101193.06;;;13.63;100.00
71504;BME280;59323;50.874;7.028;2023-05-07T03:03:39;101181.75;;;13.61;100.00
71504;BME280;59323;50.874;7.028;2023-05-07T03:06:05;101177.03;;;13.58;100.00
71504;BME280;59323;50.874;7.028;2023-05-07T03:08:36;101166.47;;;13.57;100.00
71504;BME280;59323;50.874;7.028;2023-05-07T03:11:02;101179.00;;;13.61;100.00
71504;BME280;59323;50.874;7.028;2023-05-07T03:13:27;101174.31;;;13.58;100.00
71504;BME280;59323;50.874;7.028;2023-05-07T03:15:53;101177.44;;;13.60;100.00
71504;BME280;59323;50.874;7.028;2023-05-07T03:18:18;101180.59;;;13.62;100.00
71504;BME280;59323;50.874;7.028;2023-05-07T03:20:43;101180.97;;;13.61;100.00
71504;BME280;59323;50.874;7.028;2023-05-07T03:23:09;101160.59;;;13.55;100.00
71504;BME280;59323;50.874;7.028;2023-05-07T03:25:34;101170.00;;;13.57;100.00
71504;BME280;59323;50.874;7.028;2023-05-07T03:28:00;101178.28;;;13.64;100.00
71504;BME280;59323;50.874;7.028;2023-05-07T03:30:25;101175.53;;;13.64;100.00
71504;BME280;59323;50.874;7.028;2023-05-07T03:32:51;101166.22;;;13.66;100.00
71504;BME280;59323;50.874;7.028;2023-05-07T03:35:16;101163.78;;;13.60;100.00
71504;BME280;59323;50.874;7.028;2023-05-07T03:37:41;101173.59;;;13.65;100.00
71504;BME280;59323;50.874;7.028;2023-05-07T03:40:07;101176.69;;;13.63;100.00
71504;BME280;59323;50.874;7.028;2023-05-07T03:42:35;101169.66;;;13.62;100.00
71504;BME280;59323;50.874;7.028;2023-05-07T03:45:00;101168.88;;;13.62;100.00
71504;BME280;59323;50.874;7.028;2023-05-07T03:47:26;101176.28;;;13.61;100.00
71504;BME280;59323;50.874;7.028;2023-05-07T03:49:51;101177.44;;;13.60;100.00
71504;BME280;59323;50.874;7.028;2023-05-07T03:52:18;101177.44;;;13.60;100.00
71504;BME280;59323;50.874;7.028;2023-05-07T03:54:48;101170.38;;;13.56;100.00
71504;BME280;59323;50.874;7.028;2023-05-07T03:57:13;101173.47;;;13.54;100.00
71504;BME280;59323;50.874;7.028;2023-05-07T03:59:38;101180.13;;;13.57;100.00
71504;BME280;59323;50.874;7.028;2023-05-07T04:02:04;101185.59;;;13.57;100.00
71504;BME280;59323;50.874;7.028;2023-05-07T04:04:29;101180.09;;;13.53;100.00
71504;BME280;59323;50.874;7.028;2023-05-07T04:06:57;101187.91;;;13.55;100.00
71504;BME280;59323;50.874;7.028;2023-05-07T04:09:24;101193.38;;;13.55;100.00
71504;BME280;59323;50.874;7.028;2023-05-07T04:11:50;101197.63;;;13.52;100.00
71504;BME280;59323;50.874;7.028;2023-05-07T04:14:15;101192.56;;;13.51;100.00
71504;BME280;59323;50.874;7.028;2023-05-07T04:16:41;101199.97;;;13.50;100.00
71504;BME280;59323;50.874;7.028;2023-05-07T04:19:06;101203.84;;;13.49;100.00
71504;BME280;59323;50.874;7.028;2023-05-07T04:21:31;101207.38;;;13.50;100.00
71504;BME280;59323;50.874;7.028;2023-05-07T04:23:57;101194.88;;;13.49;100.00
71504;BME280;59323;50.874;7.028;2023-05-07T04:26:22;101206.94;;;13.48;100.00
71504;BME280;59323;50.874;7.028;2023-05-07T04:28:48;101197.19;;;13.47;100.00
71504;BME280;59323;50.874;7.028;2023-05-07T04:31:13;101193.25;;;13.44;100.00
71504;BME280;59323;50.874;7.028;2023-05-07T04:33:39;101190.94;;;13.46;100.00
71504;BME280;59323;50.874;7.028;2023-05-07T04:36:04;101192.13;;;13.49;100.00
71504;BME280;59323;50.874;7.028;2023-05-07T04:38:30;101195.25;;;13.47;100.00
71504;BME280;59323;50.874;7.028;2023-05-07T04:40:57;101192.88;;;13.46;100.00
71504;BME280;59323;50.874;7.028;2023-05-07T04:43:22;101194.88;;;13.49;100.00
71504;BME280;59323;50.874;7.028;2023-05-07T04:45:50;101185.53;;;13.50;100.00
71504;BME280;59323;50.874;7.028;2023-05-07T04:48:15;101187.84;;;13.48;100.00
71504;BME280;59323;50.874;7.028;2023-05-07T04:50:41;101193.78;;;13.57;100.00
71504;BME280;59323;50.874;7.028;2023-05-07T04:53:06;101194.94;;;13.56;100.00
71504;BME280;59323;50.874;7.028;2023-05-07T04:55:32;101197.22;;;13.50;100.00
71504;BME280;59323;50.874;7.028;2023-05-07T04:57:57;101195.72;;;13.56;100.00
71504;BME280;59323;50.874;7.028;2023-05-07T05:00:23;101185.59;;;13.57;100.00
71504;BME280;59323;50.874;7.028;2023-05-07T05:02:48;101193.03;;;13.60;100.00
71504;BME280;59323;50.874;7.028;2023-05-07T05:05:13;101190.72;;;13.62;100.00
71504;BME280;59323;50.874;7.028;2023-05-07T05:07:39;101188.38;;;13.60;100.00
71504;BME280;59323;50.874;7.028;2023-05-07T05:10:05;101188.00;;;13.62;100.00
71504;BME280;59323;50.874;7.028;2023-05-07T05:12:30;101194.72;;;13.68;100.00
71504;BME280;59323;50.874;7.028;2023-05-07T05:14:56;101192.41;;;13.70;100.00
71504;BME280;59323;50.874;7.028;2023-05-07T05:17:21;101190.78;;;13.66;100.00
71504;BME280;59323;50.874;7.028;2023-05-07T05:19:47;101211.19;;;13.75;100.00
71504;BME280;59323;50.874;7.028;2023-05-07T05:22:12;101208.13;;;13.80;99.66
71504;BME280;59323;50.874;7.028;2023-05-07T05:24:37;101210.91;;;13.87;99.26
71504;BME280;59323;50.874;7.028;2023-05-07T05:27:03;101208.19;;;13.87;99.26
71504;BME280;59323;50.874;7.028;2023-05-07T05:29:28;101204.69;;;13.90;98.41
71504;BME280;59323;50.874;7.028;2023-05-07T05:31:53;101216.13;;;14.00;98.10
71504;BME280;59323;50.874;7.028;2023-05-07T05:34:19;101213.41;;;14.03;98.05
71504;BME280;59323;50.874;7.028;2023-05-07T05:36:47;101213.44;;;14.07;98.41
71504;BME280;59323;50.874;7.028;2023-05-07T05:39:12;101206.84;;;14.11;97.26
71504;BME280;59323;50.874;7.028;2023-05-07T05:41:38;101207.28;;;14.17;97.20
71504;BME280;59323;50.874;7.028;2023-05-07T05:44:03;101206.94;;;14.22;97.45
71504;BME280;59323;50.874;7.028;2023-05-07T05:46:29;101209.72;;;14.25;96.57
71504;BME280;59323;50.874;7.028;2023-05-07T05:48:55;101207.75;;;14.26;96.50
71504;BME280;59323;50.874;7.028;2023-05-07T05:51:21;101209.38;;;14.31;95.91
71504;BME280;59323;50.874;7.028;2023-05-07T05:53:46;101215.28;;;14.36;95.45
71504;BME280;59323;50.874;7.028;2023-05-07T05:56:12;101215.69;;;14.38;95.57
71504;BME280;59323;50.874;7.028;2023-05-07T05:58:37;101223.94;;;14.42;94.82
71504;BME280;59323;50.874;7.028;2023-05-07T06:01:03;101222.41;;;14.44;95.32
71504;BME280;59323;50.874;7.028;2023-05-07T06:03:28;101218.16;;;14.47;95.73
71504;BME280;59323;50.874;7.028;2023-05-07T06:05:54;101207.19;;;14.43;94.99
71504;BME280;59323;50.874;7.028;2023-05-07T06:08:19;101219.75;;;14.51;95.39
71504;BME280;59323;50.874;7.028;2023-05-07T06:10:45;101216.25;;;14.54;94.88
71504;BME280;59323;50.874;7.028;2023-05-07T06:13:10;101217.44;;;14.57;94.57
71504;BME280;59323;50.874;7.028;2023-05-07T06:15:35;101217.47;;;14.61;94.94
71504;BME280;59323;50.874;7.028;2023-05-07T06:18:01;101224.53;;;14.65;95.30
71504;BME280;59323;50.874;7.028;2023-05-07T06:20:26;101222.59;;;14.69;95.36
71504;BME280;59323;50.874;7.028;2023-05-07T06:22:51;101225.00;;;14.78;94.37
71504;BME280;59323;50.874;7.028;2023-05-07T06:25:17;101216.03;;;14.81;93.00
71504;BME280;59323;50.874;7.028;2023-05-07T06:27:42;101227.78;;;14.85;93.50
71504;BME280;59323;50.874;7.028;2023-05-07T06:30:08;101227.44;;;14.90;93.40
71504;BME280;59323;50.874;7.028;2023-05-07T06:32:33;101234.94;;;14.97;93.43
71504;BME280;59323;50.874;7.028;2023-05-07T06:34:58;101234.94;;;15.00;92.91
71504;BME280;59323;50.874;7.028;2023-05-07T06:37:24;101243.19;;;15.07;90.95
71504;BME280;59323;50.874;7.028;2023-05-07T06:39:49;101240.50;;;15.14;91.58
71504;BME280;59323;50.874;7.028;2023-05-07T06:42:15;101242.09;;;15.19;92.21
71504;BME280;59323;50.874;7.028;2023-05-07T06:44:40;101256.59;;;15.27;91.22
71504;BME280;59323;50.874;7.028;2023-05-07T06:47:06;101246.06;;;15.32;91.57
71504;BME280;59323;50.874;7.028;2023-05-07T06:49:31;101248.06;;;15.39;91.22
71504;BME280;59323;50.874;7.028;2023-05-07T06:51:58;101236.69;;;15.37;89.03
71504;BME280;59323;50.874;7.028;2023-05-07T06:54:23;101239.09;;;15.45;89.86
71504;BME280;59323;50.874;7.028;2023-05-07T06:56:49;101245.38;;;15.53;90.69
71504;BME280;59323;50.874;7.028;2023-05-07T06:59:15;101248.56;;;15.59;89.96
71504;BME280;59323;50.874;7.028;2023-05-07T07:01:40;101241.56;;;15.65;88.08
71504;BME280;59323;50.874;7.028;2023-05-07T07:04:06;101251.78;;;15.78;88.12
71504;BME280;59323;50.874;7.028;2023-05-07T07:06:31;101251.84;;;16.03;86.75
71504;BME280;59323;50.874;7.028;2023-05-07T07:08:57;101242.50;;;16.33;86.22
71504;BME280;59323;50.874;7.028;2023-05-07T07:11:23;101254.28;;;16.65;84.84
71504;BME280;59323;50.874;7.028;2023-05-07T07:13:48;101255.84;;;16.91;83.78
71504;BME280;59323;50.874;7.028;2023-05-07T07:16:14;101248.75;;;17.04;81.75
71504;BME280;59323;50.874;7.028;2023-05-07T07:18:39;101256.56;;;17.27;81.42
71504;BME280;59323;50.874;7.028;2023-05-07T07:21:05;101250.25;;;17.30;79.63
71504;BME280;59323;50.874;7.028;2023-05-07T07:23:30;101248.28;;;17.38;81.04
71504;BME280;59323;50.874;7.028;2023-05-07T07:25:56;101263.94;;;17.44;79.85
71504;BME280;59323;50.874;7.028;2023-05-07T07:28:21;101257.28;;;17.46;79.36
71504;BME280;59323;50.874;7.028;2023-05-07T07:30:47;101257.63;;;17.51;79.55
71504;BME280;59323;50.874;7.028;2023-05-07T07:33:12;101256.47;;;17.52;78.43
71504;BME280;59323;50.874;7.028;2023-05-07T07:35:38;101260.38;;;17.69;80.04
71504;BME280;59323;50.874;7.028;2023-05-07T07:38:03;101267.31;;;17.91;78.47
71504;BME280;59323;50.874;7.028;2023-05-07T07:40:29;101247.19;;;18.05;78.12
71504;BME280;59323;50.874;7.028;2023-05-07T07:42:54;101258.94;;;18.13;75.36
71504;BME280;59323;50.874;7.028;2023-05-07T07:45:20;101253.00;;;18.21;76.00
71504;BME280;59323;50.874;7.028;2023-05-07T07:47:46;101257.91;;;18.48;76.96
71504;BME280;59323;50.874;7.028;2023-05-07T07:50:11;101258.25;;;18.53;74.68
71504;BME280;59323;50.874;7.028;2023-05-07T07:52:37;101261.34;;;18.66;73.74
71504;BME280;59323;50.874;7.028;2023-05-07T07:55:02;101257.69;;;18.76;73.78
71504;BME280;59323;50.874;7.028;2023-05-07T07:57:28;101265.41;;;18.95;73.96
71504;BME280;59323;50.874;7.028;2023-05-07T07:59:54;101267.69;;;19.04;72.59
71504;BME280;59323;50.874;7.028;2023-05-07T08:02:19;101272.41;;;19.04;71.74
71504;BME280;59323;50.874;7.028;2023-05-07T08:04:45;101270.50;;;18.97;71.09
71504;BME280;59323;50.874;7.028;2023-05-07T08:07:10;101261.91;;;18.91;71.74
71504;BME280;59323;50.874;7.028;2023-05-07T08:09:37;101276.84;;;18.94;70.96
71504;BME280;59323;50.874;7.028;2023-05-07T08:12:02;101274.13;;;18.90;71.58
71504;BME280;59323;50.874;7.028;2023-05-07T08:14:28;101272.19;;;18.87;71.26
71504;BME280;59323;50.874;7.028;2023-05-07T08:16:54;101277.66;;;18.91;72.15
71504;BME280;59323;50.874;7.028;2023-05-07T08:19:19;101265.88;;;18.87;71.49
71504;BME280;59323;50.874;7.028;2023-05-07T08:21:45;101267.47;;;18.84;70.91
71504;BME280;59323;50.874;7.028;2023-05-07T08:24:13;101274.50;;;18.92;72.64
71504;BME280;59323;50.874;7.028;2023-05-07T08:26:38;101268.22;;;18.88;70.05
71504;BME280;59323;50.874;7.028;2023-05-07T08:29:04;101276.88;;;18.90;71.18
71504;BME280;59323;50.874;7.028;2023-05-07T08:31:30;101272.94;;;18.91;71.75
71504;BME280;59323;50.874;7.028;2023-05-07T08:33:56;101282.34;;;18.94;70.62
71504;BME280;59323;50.874;7.028;2023-05-07T08:36:21;101274.53;;;18.89;71.61
71504;BME280;59323;50.874;7.028;2023-05-07T08:38:46;101273.28;;;18.93;73.07
71504;BME280;59323;50.874;7.028;2023-05-07T08:41:12;101273.75;;;18.88;71.99
71504;BME280;59323;50.874;7.028;2023-05-07T08:43:38;101276.88;;;18.90;72.44
71504;BME280;59323;50.874;7.028;2023-05-07T08:46:06;101276.91;;;18.87;71.56
71504;BME280;59323;50.874;7.028;2023-05-07T08:48:34;101273.28;;;18.93;72.33
71504;BME280;59323;50.874;7.028;2023-05-07T08:51:00;101278.41;;;18.95;72.67
71504;BME280;59323;50.874;7.028;2023-05-07T08:53:26;101270.50;;;18.97;72.78
71504;BME280;59323;50.874;7.028;2023-05-07T08:55:52;101266.53;;;19.02;72.62
71504;BME280;59323;50.874;7.028;2023-05-07T08:58:18;101271.88;;;19.16;71.38
71504;BME280;59323;50.874;7.028;2023-05-07T09:00:43;101265.34;;;19.37;71.28
71504;BME280;59323;50.874;7.028;2023-05-07T09:03:08;101272.56;;;19.65;69.96
71504;BME280;59323;50.874;7.028;2023-05-07T09:05:40;101266.53;;;19.73;68.46
71504;BME280;59323;50.874;7.028;2023-05-07T09:08:07;101265.72;;;20.03;68.73
71504;BME280;59323;50.874;7.028;2023-05-07T09:10:33;101270.47;;;20.30;66.98
71504;BME280;59323;50.874;7.028;2023-05-07T09:12:59;101266.25;;;20.48;66.34
71504;BME280;59323;50.874;7.028;2023-05-07T09:15:26;101262.19;;;20.80;66.38
71504;BME280;59323;50.874;7.028;2023-05-07T09:17:51;101263.81;;;21.01;64.55
71504;BME280;59323;50.874;7.028;2023-05-07T09:20:17;101254.94;;;21.09;63.83
71504;BME280;59323;50.874;7.028;2023-05-07T09:22:42;101261.00;;;21.24;61.95
71504;BME280;59323;50.874;7.028;2023-05-07T09:25:09;101257.31;;;21.31;60.81
71504;BME280;59323;50.874;7.028;2023-05-07T09:27:35;101258.53;;;21.30;60.28
71504;BME280;59323;50.874;7.028;2023-05-07T09:30:06;101260.53;;;21.49;61.29
71504;BME280;59323;50.874;7.028;2023-05-07T09:32:34;101262.53;;;21.48;60.66
71504;BME280;59323;50.874;7.028;2023-05-07T09:35:00;101259.88;;;21.61;60.84
71504;BME280;59323;50.874;7.028;2023-05-07T09:37:25;101261.44;;;21.62;60.48
71504;BME280;59323;50.874;7.028;2023-05-07T09:39:50;101265.13;;;21.75;60.81
71504;BME280;59323;50.874;7.028;2023-05-07T09:42:23;101265.41;;;21.97;60.75
71504;BME280;59323;50.874;7.028;2023-05-07T09:44:48;101258.31;;;21.96;59.22
71504;BME280;59323;50.874;7.028;2023-05-07T09:47:18;101258.31;;;22.16;61.36
71504;BME280;59323;50.874;7.028;2023-05-07T09:49:46;101260.75;;;22.46;60.26
71504;BME280;59323;50.874;7.028;2023-05-07T09:52:13;101258.94;;;22.56;56.16
71504;BME280;59323;50.874;7.028;2023-05-07T09:54:40;101261.94;;;22.62;57.19
71504;BME280;59323;50.874;7.028;2023-05-07T09:57:09;101255.19;;;22.95;56.96
71504;BME280;59323;50.874;7.028;2023-05-07T09:59:37;101259.13;;;23.11;58.99
71504;BME280;59323;50.874;7.028;2023-05-07T10:02:04;101250.63;;;23.18;55.21
71504;BME280;59323;50.874;7.028;2023-05-07T10:04:30;101252.78;;;23.39;55.77
71504;BME280;59323;50.874;7.028;2023-05-07T10:06:56;101245.53;;;23.29;55.62
71504;BME280;59323;50.874;7.028;2023-05-07T10:09:22;101262.81;;;23.20;54.63
71504;BME280;59323;50.874;7.028;2023-05-07T10:11:49;101258.13;;;23.04;55.45
71504;BME280;59323;50.874;7.028;2023-05-07T10:14:15;101246.19;;;22.91;55.55
71504;BME280;59323;50.874;7.028;2023-05-07T10:16:40;101249.50;;;22.86;57.04
71504;BME280;59323;50.874;7.028;2023-05-07T10:19:07;101253.63;;;22.94;56.63
71504;BME280;59323;50.874;7.028;2023-05-07T10:21:36;101249.47;;;23.02;57.40
71504;BME280;59323;50.874;7.028;2023-05-07T10:24:12;101244.41;;;23.14;58.87
71504;BME280;59323;50.874;7.028;2023-05-07T10:26:44;101239.88;;;23.20;57.80
71504;BME280;59323;50.874;7.028;2023-05-07T10:32:11;101249.09;;;23.29;55.63
71504;BME280;59323;50.874;7.028;2023-05-07T10:34:43;101248.41;;;23.25;53.89
71504;BME280;59323;50.874;7.028;2023-05-07T10:37:10;101255.13;;;23.40;55.92
71504;BME280;59323;50.874;7.028;2023-05-07T10:39:38;101251.50;;;23.44;54.31
71504;BME280;59323;50.874;7.028;2023-05-07T10:42:17;101241.69;;;23.39;54.65
71504;BME280;59323;50.874;7.028;2023-05-07T10:44:43;101245.41;;;23.49;54.26
71504;BME280;59323;50.874;7.028;2023-05-07T10:47:11;101246.47;;;23.80;53.47
71504;BME280;59323;50.874;7.028;2023-05-07T10:52:31;101243.91;;;23.73;52.92
71504;BME280;59323;50.874;7.028;2023-05-07T10:57:40;101247.28;;;23.52;52.15
71504;BME280;59323;50.874;7.028;2023-05-07T11:05:29;101235.47;;;23.64;53.38
71504;BME280;59323;50.874;7.028;2023-05-07T11:07:58;101238.47;;;23.82;53.04
71504;BME280;59323;50.874;7.028;2023-05-07T11:10:56;101231.69;;;23.96;53.84
71504;BME280;59323;50.874;7.028;2023-05-07T11:13:45;101231.47;;;24.03;52.39
71504;BME280;59323;50.874;7.028;2023-05-07T11:16:21;101226.25;;;24.05;51.97
71504;BME280;59323;50.874;7.028;2023-05-07T11:18:53;101227.25;;;24.24;51.85
71504;BME280;59323;50.874;7.028;2023-05-07T11:21:37;101235.72;;;24.33;51.61
71504;BME280;59323;50.874;7.028;2023-05-07T11:24:06;101219.03;;;24.33;51.31
71504;BME280;59323;50.874;7.028;2023-05-07T11:26:42;101211.38;;;24.37;51.48
71504;BME280;59323;50.874;7.028;2023-05-07T11:29:21;101218.84;;;24.62;52.35
71504;BME280;59323;50.874;7.028;2023-05-07T11:31:51;101211.94;;;24.66;49.72
71504;BME280;59323;50.874;7.028;2023-05-07T11:34:22;101214.50;;;24.74;50.65
71504;BME280;59323;50.874;7.028;2023-05-07T11:36:48;101219.16;;;24.77;49.97
71504;BME280;59323;50.874;7.028;2023-05-07T11:39:30;101216.78;;;24.88;49.78
71504;BME280;59323;50.874;7.028;2023-05-07T11:42:00;101222.06;;;25.08;50.65
71504;BME280;59323;50.874;7.028;2023-05-07T11:44:43;101218.34;;;25.33;51.21
71504;BME280;59323;50.874;7.028;2023-05-07T11:47:10;101220.91;;;25.18;44.67
71504;BME280;59323;50.874;7.028;2023-05-07T11:49:36;101214.19;;;24.93;45.78
71504;BME280;59323;50.874;7.028;2023-05-07T11:52:01;101206.03;;;24.77;46.67
71504;BME280;59323;50.874;7.028;2023-05-07T11:54:35;101210.31;;;24.56;46.77
71504;BME280;59323;50.874;7.028;2023-05-07T11:57:00;101214.31;;;24.55;48.50
71504;BME280;59323;50.874;7.028;2023-05-07T11:59:26;101214.84;;;24.63;49.46
71504;BME280;59323;50.874;7.028;2023-05-07T12:01:52;101218.91;;;24.49;49.16
71504;BME280;59323;50.874;7.028;2023-05-07T12:04:19;101216.00;;;24.53;49.66
71504;BME280;59323;50.874;7.028;2023-05-07T12:06:45;101222.03;;;24.39;48.37
71504;BME280;59323;50.874;7.028;2023-05-07T12:09:11;101216.72;;;24.31;47.19
71504;BME280;59323;50.874;7.028;2023-05-07T12:11:36;101212.38;;;24.18;47.70
71504;BME280;59323;50.874;7.028;2023-05-07T12:14:05;101207.47;;;24.22;46.39
71504;BME280;59323;50.874;7.028;2023-05-07T12:16:30;101209.38;;;24.12;49.11
71504;BME280;59323;50.874;7.028;2023-05-07T12:18:56;101217.16;;;24.17;50.56
71504;BME280;59323;50.874;7.028;2023-05-07T12:21:24;101209.47;;;24.21;50.47
71504;BME280;59323;50.874;7.028;2023-05-07T12:23:50;101220.38;;;24.28;48.93
71504;BME280;59323;50.874;7.028;2023-05-07T12:26:16;101223.50;;;24.30;49.16
71504;BME280;59323;50.874;7.028;2023-05-07T12:28:41;101224.16;;;24.22;49.35
71504;BME280;59323;50.874;7.028;2023-05-07T12:31:07;101221.69;;;24.24;46.70
71504;BME280;59323;50.874;7.028;2023-05-07T12:33:34;101220.28;;;24.07;48.64
71504;BME280;59323;50.874;7.028;2023-05-07T12:36:04;101219.25;;;24.00;50.34
71504;BME280;59323;50.874;7.028;2023-05-07T12:38:35;101218.94;;;23.98;50.96
71504;BME280;59323;50.874;7.028;2023-05-07T12:41:00;101215.50;;;23.94;48.89
71504;BME280;59323;50.874;7.028;2023-05-07T12:43:27;101217.94;;;23.92;47.83
71504;BME280;59323;50.874;7.028;2023-05-07T12:45:56;101219.94;;;23.79;50.22
71504;BME280;59323;50.874;7.028;2023-05-07T12:48:22;101216.25;;;23.69;49.90
71504;BME280;59323;50.874;7.028;2023-05-07T12:50:53;101215.50;;;23.69;50.50
71504;BME280;59323;50.874;7.028;2023-05-07T12:53:20;101222.94;;;23.72;50.11
71504;BME280;59323;50.874;7.028;2023-05-07T12:55:51;101222.59;;;23.83;49.86